createdAt,value
2018-08-16T00:00:50.697Z,12.75
2018-08-16T00:03:18.978Z,15.90
2018-08-16T00:05:47.269Z,16.73
2018-08-16T00:08:15.518Z,16.67
2018-08-16T00:10:43.775Z,16.65
2018-08-16T00:13:12.008Z,18.55
2018-08-16T00:15:40.251Z,15.93
2018-08-16T00:18:08.527Z,17.27
2018-08-16T00:20:36.751Z,16.93
2018-08-16T00:23:05.431Z,18.32
2018-08-16T00:25:33.689Z,17.27
2018-08-16T00:28:01.900Z,17.15
2018-08-16T00:30:30.100Z,18.37
2018-08-16T00:32:58.328Z,17.57
2018-08-16T00:35:26.928Z,18.02
2018-08-16T00:37:55.132Z,17.43
2018-08-16T00:40:23.359Z,18.75
2018-08-16T00:42:51.623Z,16.77
2018-08-16T00:45:19.896Z,17.80
2018-08-16T00:47:48.154Z,18.17
2018-08-16T00:50:16.634Z,17.75
2018-08-16T00:52:44.902Z,18.67
2018-08-16T00:55:14.111Z,17.73
2018-08-16T00:57:43.356Z,17.62
2018-08-16T01:00:13.867Z,18.05
2018-08-16T01:02:42.071Z,18.12
2018-08-16T01:05:10.512Z,17.62
2018-08-16T01:07:38.923Z,19.90
2018-08-16T01:10:08.642Z,17.75
2018-08-16T01:12:36.890Z,17.98
2018-08-16T01:15:06.935Z,19.80
2018-08-16T01:17:35.188Z,19.80
2018-08-16T01:20:03.471Z,19.85
2018-08-16T01:22:31.729Z,18.93
2018-08-16T01:24:59.945Z,18.12
2018-08-16T01:27:28.148Z,19.65
2018-08-16T01:29:56.406Z,17.77
2018-08-16T01:32:24.643Z,18.95
2018-08-16T01:34:52.852Z,21.00
2018-08-16T01:37:21.183Z,18.73
2018-08-16T01:39:49.569Z,19.05
2018-08-16T01:42:18.350Z,18.00
2018-08-16T01:44:46.668Z,18.62
2018-08-16T01:47:14.912Z,17.75
2018-08-16T01:49:43.155Z,18.57
2018-08-16T01:52:12.086Z,19.85
2018-08-16T01:54:40.287Z,18.17
2018-08-16T01:57:08.481Z,19.35
2018-08-16T01:59:37.371Z,19.07
2018-08-16T02:02:05.608Z,19.25
2018-08-16T02:04:33.841Z,20.23
2018-08-16T02:07:02.179Z,18.23
2018-08-16T02:09:30.404Z,18.42
2018-08-16T02:11:58.735Z,18.65
2018-08-16T02:14:26.947Z,19.03
2018-08-16T02:16:55.171Z,17.20
2018-08-16T02:19:23.395Z,19.15
2018-08-16T02:21:51.686Z,18.73
2018-08-16T02:24:19.980Z,18.55
2018-08-16T02:26:48.298Z,19.70
2018-08-16T02:29:16.620Z,16.52
2018-08-16T02:31:44.848Z,19.85
2018-08-16T02:34:13.093Z,17.55
2018-08-16T02:36:41.355Z,18.35
2018-08-16T02:39:10.204Z,16.40
2018-08-16T02:41:39.091Z,18.57
2018-08-16T02:44:07.811Z,16.50
2018-08-16T02:46:36.016Z,15.32
2018-08-16T02:49:04.294Z,17.12
2018-08-16T02:51:32.503Z,17.57
2018-08-16T02:54:00.744Z,16.30
2018-08-16T02:56:29.000Z,16.95
2018-08-16T02:58:57.255Z,15.53
2018-08-16T03:01:26.256Z,16.77
2018-08-16T03:03:54.488Z,14.70
2018-08-16T03:06:22.771Z,15.95
2018-08-16T03:11:00.960Z,14.90
2018-08-16T03:13:29.164Z,16.32
2018-08-16T03:15:57.399Z,15.23
2018-08-16T03:18:25.592Z,15.83
2018-08-16T03:20:54.353Z,18.32
2018-08-16T03:23:22.595Z,17.40
2018-08-16T03:25:50.827Z,16.85
2018-08-16T03:28:19.151Z,16.50
2018-08-16T03:30:47.453Z,17.05
2018-08-16T03:33:15.744Z,16.73
2018-08-16T03:35:43.956Z,17.98
2018-08-16T03:38:12.208Z,18.17
2018-08-16T03:40:40.423Z,17.45
2018-08-16T03:43:08.680Z,18.60
2018-08-16T03:45:37.729Z,18.10
2018-08-16T03:48:05.943Z,16.62
2018-08-16T03:50:34.238Z,18.52
2018-08-16T03:53:02.443Z,17.90
2018-08-16T03:55:30.947Z,18.90
2018-08-16T03:57:59.155Z,18.77
2018-08-16T04:00:27.364Z,17.48
2018-08-16T04:02:55.960Z,19.57
2018-08-16T04:05:24.183Z,18.45
2018-08-16T04:07:52.455Z,18.45
2018-08-16T04:10:20.740Z,17.77
2018-08-16T04:12:49.015Z,19.57
2018-08-16T04:15:17.308Z,18.17
2018-08-16T04:17:45.571Z,18.47
2018-08-16T04:20:13.816Z,18.20
2018-08-16T04:22:42.180Z,18.57
2018-08-16T04:25:10.408Z,18.75
2018-08-16T04:27:38.716Z,18.80
2018-08-16T04:30:06.951Z,19.10
2018-08-16T04:32:35.193Z,19.80
2018-08-16T04:35:03.513Z,19.87
2018-08-16T04:37:31.683Z,17.98
2018-08-16T04:39:59.901Z,19.50
2018-08-16T04:42:28.163Z,18.80
2018-08-16T04:44:56.916Z,19.35
2018-08-16T04:47:25.519Z,17.80
2018-08-16T04:49:53.755Z,18.82
2018-08-16T04:52:21.984Z,18.73
2018-08-16T04:54:50.262Z,17.57
2018-08-16T04:57:19.229Z,18.37
2018-08-16T04:59:47.475Z,19.98
2018-08-16T05:02:15.720Z,18.27
2018-08-16T05:04:43.957Z,19.35
2018-08-16T05:07:12.140Z,17.12
2018-08-16T05:09:41.300Z,19.02
2018-08-16T05:12:09.511Z,17.35
2018-08-16T05:14:37.716Z,18.00
2018-08-16T05:17:05.970Z,17.85
2018-08-16T05:19:34.196Z,19.25
2018-08-16T05:22:02.528Z,17.17
2018-08-16T05:24:30.788Z,15.35
2018-08-16T05:26:59.684Z,16.23
2018-08-16T05:29:27.951Z,16.17
2018-08-16T05:31:56.167Z,16.48
2018-08-16T05:34:24.413Z,16.20
2018-08-16T05:36:52.664Z,16.12
2018-08-16T05:39:20.920Z,15.48
2018-08-16T05:41:49.251Z,15.63
2018-08-16T05:44:17.558Z,15.50
2018-08-16T05:46:45.832Z,15.10
2018-08-16T05:49:14.057Z,14.83
2018-08-16T05:51:42.305Z,14.35
2018-08-16T05:54:10.517Z,14.00
2018-08-16T05:56:38.808Z,13.98
2018-08-16T05:59:07.036Z,13.32
2018-08-16T06:01:35.280Z,14.70
2018-08-16T06:04:03.561Z,13.62
2018-08-16T06:06:31.775Z,15.03
2018-08-16T06:09:00.469Z,14.23
2018-08-16T06:11:29.027Z,15.28
2018-08-16T06:13:57.258Z,14.70
2018-08-16T06:16:25.489Z,16.10
2018-08-16T06:18:54.440Z,15.78
2018-08-16T06:21:22.687Z,15.70
2018-08-16T06:23:50.940Z,15.90
2018-08-16T06:26:19.219Z,18.32
2018-08-16T06:28:47.500Z,17.98
2018-08-16T06:31:15.810Z,17.07
2018-08-16T06:33:44.059Z,18.57
2018-08-16T06:36:12.305Z,19.07
2018-08-16T06:38:40.595Z,18.00
2018-08-16T06:41:08.805Z,17.62
2018-08-16T06:43:37.043Z,18.55
2018-08-16T06:46:05.253Z,17.75
2018-08-16T06:48:33.517Z,18.73
2018-08-16T06:51:01.720Z,18.70
2018-08-16T06:53:29.987Z,17.52
2018-08-16T06:55:58.286Z,16.57
2018-08-16T06:58:26.562Z,17.92
2018-08-16T07:00:55.029Z,17.98
2018-08-16T07:03:23.283Z,17.55
2018-08-16T07:05:51.532Z,16.95
2018-08-16T07:08:19.779Z,16.85
2018-08-16T07:10:48.056Z,16.95
2018-08-16T07:13:16.375Z,16.52
2018-08-16T07:15:44.580Z,17.27
2018-08-16T07:18:12.833Z,17.07
2018-08-16T07:20:41.071Z,18.00
2018-08-16T07:23:09.284Z,16.05
2018-08-16T07:25:37.555Z,17.85
2018-08-16T07:28:05.793Z,15.85
2018-08-16T07:30:34.037Z,16.67
2018-08-16T07:33:02.267Z,16.73
2018-08-16T07:35:30.465Z,16.60
2018-08-16T07:37:58.683Z,16.00
2018-08-16T07:40:26.940Z,15.25
2018-08-16T07:42:55.148Z,14.87
2018-08-16T07:45:23.377Z,14.45
2018-08-16T07:47:51.716Z,15.05
2018-08-16T07:50:19.996Z,14.83
2018-08-16T07:52:48.279Z,13.93
2018-08-16T07:55:16.596Z,14.03
2018-08-16T07:57:44.799Z,13.90
2018-08-16T08:00:16.212Z,13.58
2018-08-16T08:02:44.563Z,14.40
2018-08-16T08:05:13.051Z,14.03
2018-08-16T08:07:41.605Z,14.03
2018-08-16T08:10:10.693Z,12.78
2018-08-16T08:12:39.131Z,13.55
2018-08-16T08:15:09.776Z,14.50
2018-08-16T08:17:38.462Z,12.13
2018-08-16T08:20:08.892Z,14.05
2018-08-16T08:22:37.140Z,14.18
2018-08-16T08:25:05.827Z,12.45
2018-08-16T08:27:34.112Z,13.22
2018-08-16T08:30:02.423Z,13.13
2018-08-16T08:32:30.630Z,13.72
2018-08-16T08:35:00.089Z,12.65
2018-08-16T08:37:39.611Z,12.85
2018-08-16T08:40:07.912Z,13.98
2018-08-16T08:42:36.113Z,14.15
2018-08-16T08:45:04.446Z,13.80
2018-08-16T08:47:38.086Z,14.90
2018-08-16T08:50:07.929Z,14.58
2018-08-16T08:52:36.146Z,16.15
2018-08-16T08:55:15.940Z,15.65
2018-08-16T08:57:55.632Z,16.65
2018-08-16T09:00:23.880Z,16.93
2018-08-16T09:02:52.144Z,16.73
2018-08-16T09:05:20.415Z,15.32
2018-08-16T09:07:48.704Z,14.70
2018-08-16T09:10:54.368Z,15.83
2018-08-16T09:13:34.968Z,15.72
2018-08-16T09:16:10.175Z,16.37
2018-08-16T09:18:38.504Z,14.98
2018-08-16T09:21:07.184Z,14.68
2018-08-16T09:23:36.115Z,15.60
2018-08-16T09:26:09.768Z,15.63
2018-08-16T09:28:38.308Z,15.70
2018-08-16T09:31:18.214Z,14.60
2018-08-16T09:33:57.840Z,15.32
2018-08-16T09:36:26.216Z,14.63
2018-08-16T09:38:54.910Z,16.75
2018-08-16T09:41:23.148Z,14.60
2018-08-16T09:43:51.495Z,12.68
2018-08-16T09:46:48.601Z,14.65
2018-08-16T09:49:17.006Z,12.95
2018-08-16T09:51:46.764Z,14.57
2018-08-16T09:54:14.885Z,14.63
2018-08-16T09:56:43.847Z,13.90
2018-08-16T09:59:12.088Z,14.33
2018-08-16T10:01:40.308Z,15.15
2018-08-16T10:04:09.116Z,14.80
2018-08-16T10:06:38.397Z,14.63
2018-08-16T10:09:09.488Z,13.35
2018-08-16T10:11:37.731Z,15.63
2018-08-16T10:14:05.960Z,15.48
2018-08-16T10:16:34.439Z,13.93
2018-08-16T10:19:02.793Z,12.95
2018-08-16T10:21:31.016Z,13.90
2018-08-16T10:23:59.287Z,14.23
2018-08-16T10:26:27.477Z,14.53
2018-08-16T10:28:55.672Z,15.38
2018-08-16T10:31:23.948Z,14.25
2018-08-16T10:33:52.513Z,14.20
2018-08-16T10:36:20.819Z,14.20
2018-08-16T10:38:49.160Z,13.00
2018-08-16T10:41:17.600Z,13.65
2018-08-16T10:43:45.849Z,12.37
2018-08-16T10:46:14.681Z,14.78
2018-08-16T10:48:42.929Z,13.60
2018-08-16T10:51:11.163Z,12.85
2018-08-16T10:53:39.436Z,11.25
2018-08-16T10:56:07.684Z,12.60
2018-08-16T10:58:35.904Z,10.08
2018-08-16T11:01:04.164Z,10.83
2018-08-16T11:03:32.732Z,10.58
2018-08-16T11:06:00.952Z,11.63
2018-08-16T11:08:29.332Z,9.70
2018-08-16T11:10:57.563Z,10.25
2018-08-16T11:13:25.802Z,8.85
2018-08-16T11:15:54.079Z,9.05
2018-08-16T11:18:22.331Z,9.78
2018-08-16T11:20:50.571Z,9.10
2018-08-16T11:23:18.913Z,9.38
2018-08-16T11:25:47.199Z,10.63
2018-08-16T11:28:15.477Z,9.03
2018-08-16T11:30:43.700Z,9.40
2018-08-16T11:33:11.963Z,7.67
2018-08-16T11:35:40.212Z,9.30
2018-08-16T11:38:08.459Z,9.45
2018-08-16T11:40:36.686Z,9.68
2018-08-16T11:43:05.038Z,9.23
2018-08-16T11:45:33.263Z,8.75
2018-08-16T11:48:01.531Z,9.43
2018-08-16T11:50:29.734Z,9.58
2018-08-16T11:52:57.997Z,8.97
2018-08-16T11:55:26.244Z,8.00
2018-08-16T11:57:54.455Z,7.67
2018-08-16T12:00:22.728Z,9.15
2018-08-16T12:02:51.201Z,13.30
2018-08-16T12:05:19.469Z,9.30
2018-08-16T12:07:47.796Z,14.10
2018-08-16T12:10:16.080Z,10.00
2018-08-16T12:12:44.307Z,8.53
2018-08-16T12:15:12.638Z,7.92
2018-08-16T12:17:40.799Z,7.58
2018-08-16T12:20:09.343Z,8.00
2018-08-16T12:22:37.862Z,7.45
2018-08-16T12:25:06.539Z,8.10
2018-08-16T12:27:34.744Z,7.50
2018-08-16T12:30:03.019Z,8.40
2018-08-16T12:32:31.219Z,7.83
2018-08-16T12:35:00.443Z,7.70
2018-08-16T12:37:28.583Z,7.47
2018-08-16T12:39:56.817Z,7.25
2018-08-16T12:42:25.035Z,6.83
2018-08-16T12:44:53.238Z,6.55
2018-08-16T12:47:22.406Z,6.15
2018-08-16T12:49:50.856Z,7.03
2018-08-16T12:52:19.171Z,6.55
2018-08-16T12:54:47.427Z,6.40
2018-08-16T12:57:15.648Z,6.57
2018-08-16T12:59:43.907Z,7.80
2018-08-16T13:02:12.128Z,7.05
2018-08-16T13:04:40.373Z,6.47
2018-08-16T13:07:08.598Z,6.05
2018-08-16T13:09:36.816Z,7.20
2018-08-16T13:12:05.028Z,7.07
2018-08-16T13:14:33.237Z,6.83
2018-08-16T13:17:01.830Z,6.17
2018-08-16T13:19:30.059Z,5.90
2018-08-16T13:21:58.291Z,6.87
2018-08-16T13:24:26.512Z,7.37
2018-08-16T13:26:54.731Z,7.92
2018-08-16T13:29:22.976Z,5.95
2018-08-16T13:31:51.206Z,8.35
2018-08-16T13:34:20.367Z,8.28
2018-08-16T13:36:48.711Z,7.15
2018-08-16T13:39:16.943Z,7.75
2018-08-16T13:41:45.159Z,6.58
2018-08-16T13:44:13.403Z,8.50
2018-08-16T13:46:41.611Z,6.73
2018-08-16T13:49:09.859Z,6.50
2018-08-16T13:51:38.153Z,6.90
2018-08-16T13:54:06.556Z,7.17
2018-08-16T13:56:34.732Z,7.90
2018-08-16T13:59:02.997Z,8.05
2018-08-16T14:01:31.204Z,6.78
2018-08-16T14:03:59.424Z,7.10
2018-08-16T14:06:27.679Z,7.35
2018-08-16T14:08:56.895Z,8.30
2018-08-16T14:11:25.119Z,8.18
2018-08-16T14:13:53.364Z,8.20
2018-08-16T14:16:21.672Z,8.43
2018-08-16T14:18:49.988Z,7.92
2018-08-16T14:21:18.299Z,10.37
2018-08-16T14:23:46.567Z,8.88
2018-08-16T14:26:14.798Z,8.10
2018-08-16T14:28:43.080Z,8.45
2018-08-16T14:31:11.296Z,9.13
2018-08-16T14:33:39.497Z,9.00
2018-08-16T14:36:07.760Z,8.28
2018-08-16T14:38:36.045Z,8.53
2018-08-16T14:41:04.267Z,9.93
2018-08-16T14:43:33.777Z,9.88
2018-08-16T14:46:01.999Z,8.58
2018-08-16T14:48:30.227Z,9.35
2018-08-16T14:50:59.363Z,9.68
2018-08-16T14:53:27.569Z,9.90
2018-08-16T14:55:55.779Z,10.72
2018-08-16T14:58:24.028Z,10.98
2018-08-16T15:00:52.311Z,10.15
2018-08-16T15:03:20.686Z,12.53
2018-08-16T15:05:49.005Z,10.80
2018-08-16T15:08:17.301Z,10.63
2018-08-16T15:10:45.687Z,10.45
2018-08-16T15:13:13.869Z,10.53
2018-08-16T15:15:42.064Z,9.63
2018-08-16T15:18:10.328Z,8.33
2018-08-16T15:20:38.572Z,9.93
2018-08-16T15:23:06.808Z,9.83
2018-08-16T15:25:35.010Z,9.65
2018-08-16T15:28:03.261Z,10.35
2018-08-16T15:30:31.525Z,9.78
2018-08-16T15:32:59.980Z,11.12
2018-08-16T15:35:28.224Z,9.90
2018-08-16T15:37:57.464Z,11.20
2018-08-16T15:40:25.682Z,9.73
2018-08-16T15:42:53.908Z,10.38
2018-08-16T15:45:22.420Z,10.05
2018-08-16T15:47:50.737Z,10.20
2018-08-16T15:50:19.045Z,10.05
2018-08-16T15:52:47.316Z,9.13
2018-08-16T15:55:15.661Z,10.45
2018-08-16T15:57:43.907Z,9.18
2018-08-16T16:00:12.461Z,10.13
2018-08-16T16:02:42.064Z,10.80
2018-08-16T16:05:10.475Z,9.78
2018-08-16T16:07:39.424Z,10.00
2018-08-16T16:10:08.133Z,9.40
2018-08-16T16:12:36.408Z,9.17
2018-08-16T16:15:05.220Z,10.40
2018-08-16T16:17:33.468Z,11.20
2018-08-16T16:20:01.819Z,9.75
2018-08-16T16:22:30.033Z,9.43
2018-08-16T16:24:58.361Z,10.13
2018-08-16T16:27:26.545Z,10.75
2018-08-16T16:29:54.824Z,10.03
2018-08-16T16:32:23.039Z,9.63
2018-08-16T16:34:51.300Z,11.35
2018-08-16T16:37:19.553Z,10.63
2018-08-16T16:39:47.887Z,11.28
2018-08-16T16:42:16.211Z,11.90
2018-08-16T16:44:44.451Z,11.68
2018-08-16T16:47:12.717Z,10.90
2018-08-16T16:49:41.036Z,11.97
2018-08-16T16:52:09.248Z,10.28
2018-08-16T16:54:37.456Z,10.68
2018-08-16T16:57:05.667Z,12.07
2018-08-16T16:59:33.942Z,12.33
2018-08-16T17:02:02.752Z,9.98
2018-08-16T17:04:30.985Z,12.33
2018-08-16T17:06:59.239Z,11.10
2018-08-16T17:09:27.464Z,12.15
2018-08-16T17:11:56.316Z,13.90
2018-08-16T17:14:24.552Z,12.88
2018-08-16T17:16:52.852Z,12.30
2018-08-16T17:19:21.167Z,11.83
2018-08-16T17:21:49.546Z,12.30
2018-08-16T17:24:17.815Z,11.70
2018-08-16T17:26:46.575Z,13.43
2018-08-16T17:29:14.945Z,13.70
2018-08-16T17:31:44.069Z,13.95
2018-08-16T17:34:12.312Z,14.23
2018-08-16T17:36:40.545Z,14.18
2018-08-16T17:39:08.807Z,14.75
2018-08-16T17:41:37.071Z,14.40
2018-08-16T17:44:05.362Z,14.45
2018-08-16T17:46:33.612Z,12.85
2018-08-16T17:49:01.986Z,13.65
2018-08-16T17:51:30.219Z,13.15
2018-08-16T17:53:58.495Z,11.70
2018-08-16T17:56:26.971Z,12.70
2018-08-16T17:58:55.231Z,11.80
2018-08-16T18:01:23.790Z,11.53
2018-08-16T18:03:52.076Z,11.20
2018-08-16T18:06:20.449Z,12.23
2018-08-16T18:08:48.755Z,12.10
2018-08-16T18:11:17.108Z,11.83
2018-08-16T18:13:45.396Z,10.48
2018-08-16T18:16:13.668Z,11.70
2018-08-16T18:18:42.587Z,11.18
2018-08-16T18:21:10.900Z,11.45
2018-08-16T18:23:39.188Z,10.28
2018-08-16T18:26:07.488Z,10.63
2018-08-16T18:28:35.766Z,9.88
2018-08-16T18:31:04.077Z,10.43
2018-08-16T18:33:32.495Z,9.53
2018-08-16T18:36:00.944Z,10.58
2018-08-16T18:38:29.261Z,10.43
2018-08-16T18:40:57.607Z,9.83
2018-08-16T18:43:25.925Z,9.18
2018-08-16T18:45:54.210Z,9.63
2018-08-16T18:48:22.552Z,9.63
2018-08-16T18:50:51.799Z,8.35
2018-08-16T18:53:20.203Z,9.75
2018-08-16T18:55:48.716Z,9.30
2018-08-16T18:58:17.032Z,10.70
2018-08-16T19:00:45.392Z,10.13
2018-08-16T19:03:14.384Z,10.10
2018-08-16T19:05:42.853Z,9.00
2018-08-16T19:08:11.120Z,9.15
2018-08-16T19:10:39.440Z,10.40
2018-08-16T19:13:07.792Z,9.35
2018-08-16T19:15:36.098Z,9.83
2018-08-16T19:18:04.808Z,10.15
2018-08-16T19:20:33.102Z,9.93
2018-08-16T19:23:02.417Z,10.45
2018-08-16T19:25:30.730Z,9.50
2018-08-16T19:27:59.024Z,9.53
2018-08-16T19:30:27.315Z,11.45
2018-08-16T19:32:56.695Z,9.38
2018-08-16T19:35:28.494Z,10.68
2018-08-16T19:37:57.836Z,10.47
2018-08-16T19:40:26.123Z,10.80
2018-08-16T19:42:54.481Z,9.55
2018-08-16T19:45:22.760Z,9.30
2018-08-16T19:47:52.131Z,9.63
2018-08-16T19:50:20.447Z,9.75
2018-08-16T19:52:48.807Z,9.48
2018-08-16T19:55:17.119Z,11.93
2018-08-16T19:57:45.413Z,11.28
2018-08-16T20:00:13.823Z,10.63
2018-08-16T20:02:42.160Z,11.53
2018-08-16T20:05:10.479Z,12.15
2018-08-16T20:07:39.642Z,12.13
2018-08-16T20:10:09.453Z,12.23
2018-08-16T20:12:38.171Z,12.23
2018-08-16T20:15:08.534Z,11.35
2018-08-16T20:17:36.978Z,11.30
2018-08-16T20:20:06.239Z,13.00
2018-08-16T20:22:34.715Z,12.30
2018-08-16T20:25:04.293Z,10.43
2018-08-16T20:27:32.456Z,11.70
2018-08-16T20:30:00.751Z,11.50
2018-08-16T20:32:29.044Z,11.93
2018-08-16T20:34:58.022Z,11.33
2018-08-16T20:37:26.345Z,11.28
2018-08-16T20:39:54.600Z,11.30
2018-08-16T20:42:22.876Z,11.95
2018-08-16T20:44:51.209Z,11.08
2018-08-16T20:47:19.504Z,12.07
2018-08-16T20:49:47.816Z,10.78
2018-08-16T20:52:16.111Z,12.60
2018-08-16T20:54:44.939Z,11.35
2018-08-16T20:57:13.878Z,12.73
2018-08-16T20:59:42.187Z,13.53
2018-08-16T21:02:10.516Z,13.80
2018-08-16T21:04:43.052Z,12.53
2018-08-16T21:07:11.537Z,12.37
2018-08-16T21:09:39.797Z,13.20
2018-08-16T21:12:08.116Z,13.40
2018-08-16T21:14:36.380Z,13.78
2018-08-16T21:17:05.395Z,12.65
2018-08-16T21:19:33.695Z,14.43
2018-08-16T21:22:01.964Z,14.18
2018-08-16T21:24:30.189Z,14.10
2018-08-16T21:26:58.459Z,13.40
2018-08-16T21:29:26.685Z,13.00
2018-08-16T21:31:54.945Z,13.43
2018-08-16T21:34:23.188Z,13.68
2018-08-16T21:36:51.463Z,14.55
2018-08-16T21:39:19.716Z,14.60
2018-08-16T21:41:48.019Z,14.65
2018-08-16T21:44:16.295Z,13.98
2018-08-16T21:46:44.547Z,13.88
2018-08-16T21:49:12.868Z,15.35
2018-08-16T21:51:41.137Z,13.50
2018-08-16T21:54:09.493Z,14.33
2018-08-16T21:56:37.972Z,15.05
2018-08-16T21:59:06.476Z,13.58
2018-08-16T22:01:34.746Z,15.68
2018-08-16T22:04:02.999Z,14.87
2018-08-16T22:06:42.651Z,14.15
2018-08-16T22:09:12.724Z,15.20
2018-08-16T22:11:41.060Z,15.32
2018-08-16T22:14:09.453Z,14.85
2018-08-16T22:16:37.745Z,15.45
2018-08-16T22:19:06.019Z,15.93
2018-08-16T22:21:34.315Z,15.78
2018-08-16T22:24:02.574Z,15.90
2018-08-16T22:26:30.831Z,16.70
2018-08-16T22:28:59.096Z,16.35
2018-08-16T22:31:27.378Z,16.77
2018-08-16T22:33:55.623Z,17.60
2018-08-16T22:36:23.902Z,16.77
2018-08-16T22:38:52.164Z,18.77
2018-08-16T22:41:20.436Z,15.50
2018-08-16T22:43:48.680Z,20.32
2018-08-16T22:46:16.947Z,17.52
2018-08-16T22:48:45.200Z,18.23
2018-08-16T22:51:13.441Z,20.00
2018-08-16T22:53:41.770Z,20.62
2018-08-16T22:56:10.024Z,21.02
2018-08-16T22:58:38.289Z,21.45
2018-08-16T23:01:06.535Z,21.90
2018-08-16T23:03:34.797Z,22.02
2018-08-16T23:06:03.044Z,19.82
2018-08-16T23:08:31.310Z,19.23
2018-08-16T23:10:59.606Z,20.85
2018-08-16T23:13:27.866Z,20.97
2018-08-16T23:15:56.128Z,25.23
2018-08-16T23:18:24.501Z,21.27
2018-08-16T23:20:52.771Z,22.80
2018-08-16T23:23:21.034Z,22.32
2018-08-16T23:25:49.373Z,21.33
2018-08-16T23:28:17.636Z,19.82
2018-08-16T23:30:45.900Z,20.77
2018-08-16T23:33:14.154Z,21.93
2018-08-16T23:35:42.435Z,20.92
2018-08-16T23:38:10.688Z,21.82
2018-08-16T23:40:38.949Z,20.77
2018-08-16T23:43:07.540Z,22.32
2018-08-16T23:45:35.773Z,21.62
2018-08-16T23:48:40.831Z,21.65
2018-08-16T23:51:09.163Z,22.37
2018-08-16T23:53:37.417Z,23.32
2018-08-16T23:56:06.259Z,22.55
2018-08-16T23:58:34.512Z,23.30
